ANA82 RJCC-RJTT
Flight info
| Callsign | ANA82 |
|---|---|
| Flight time | N/A |
| Altitude | 38000 |
| Route | TOBBY Y10 GODIN |
| Aircraft | B773/H-SDE2FGHIJ3J4J5N1P2RWX/LB1D1 |
Departure
| Time | N/A |
|---|---|
| Airport | New Chitose Airport (RJCC) |
Arrival
| Time | 2026-02-19 15:05 |
|---|---|
| Airport | Tokyo Haneda International Airport (RJTT) |
| Time | Latitude | Longitude | Altitude | Speed | Heading |
|---|---|---|---|---|---|
| 2026-02-19 14:58 | 35.32723 | 140.10831 | 5027 ft | 208 kts | 197° |
| 2026-02-19 14:58 | 35.31522 | 140.09871 | 4560 ft | 213 kts | 233° |
| 2026-02-19 14:59 | 35.30983 | 140.08178 | 4441 ft | 217 kts | 263° |
| 2026-02-19 14:59 | 35.31173 | 140.06353 | 4360 ft | 220 kts | 291° |
| 2026-02-19 14:59 | 35.31867 | 140.04680 | 4263 ft | 221 kts | 296° |
| 2026-02-19 14:59 | 35.32587 | 140.03011 | 4206 ft | 221 kts | 295° |
| 2026-02-19 15:00 | 35.33294 | 140.01360 | 4146 ft | 222 kts | 295° |
| 2026-02-19 15:00 | 35.34687 | 139.98072 | 4013 ft | 219 kts | 295° |
| 2026-02-19 15:00 | 35.35383 | 139.96414 | 4002 ft | 219 kts | 294° |
| 2026-02-19 15:01 | 35.36082 | 139.94749 | 4012 ft | 220 kts | 295° |
| 2026-02-19 15:01 | 35.36788 | 139.93092 | 4000 ft | 219 kts | 300° |
| 2026-02-19 15:01 | 35.37889 | 139.91810 | 3840 ft | 221 kts | 329° |
| 2026-02-19 15:01 | 35.39223 | 139.90927 | 3593 ft | 216 kts | 329° |
| 2026-02-19 15:02 | 35.40530 | 139.90010 | 3251 ft | 217 kts | 329° |
| 2026-02-19 15:02 | 35.41833 | 139.89086 | 2944 ft | 215 kts | 329° |
| 2026-02-19 15:02 | 35.43113 | 139.88183 | 2642 ft | 214 kts | 330° |
| 2026-02-19 15:02 | 35.44398 | 139.87277 | 2359 ft | 213 kts | 330° |
| 2026-02-19 15:03 | 35.45675 | 139.86376 | 2071 ft | 210 kts | 331° |
| 2026-02-19 15:03 | 35.46917 | 139.85498 | 1754 ft | 200 kts | 331° |
| 2026-02-19 15:03 | 35.48084 | 139.84674 | 1496 ft | 185 kts | 331° |
| 2026-02-19 15:03 | 35.49156 | 139.83915 | 1236 ft | 171 kts | 332° |
| 2026-02-19 15:04 | 35.50120 | 139.83233 | 1010 ft | 147 kts | 332° |
| 2026-02-19 15:04 | 35.51758 | 139.82076 | 641 ft | 135 kts | 331° |
| 2026-02-19 15:04 | 35.52583 | 139.81491 | 454 ft | 137 kts | 331° |
| 2026-02-19 15:05 | 35.53407 | 139.80909 | 254 ft | 135 kts | 331° |
| 2026-02-19 15:05 | 35.54215 | 139.80340 | 89 ft | 134 kts | 332° |
| 2026-02-19 15:05 | 35.54989 | 139.79786 | 34 ft | 112 kts | 329° |
| 2026-02-19 15:05 | 35.55460 | 139.79456 | 31 ft | 45 kts | 329° |
| 2026-02-19 15:06 | 35.55665 | 139.79291 | 32 ft | 27 kts | 320° |
| 2026-02-19 15:06 | 35.55771 | 139.79144 | 29 ft | 17 kts | 302° |
| 2026-02-19 15:06 | 35.55783 | 139.79047 | 29 ft | 11 kts | 242° |
| 2026-02-19 15:06 | 35.55715 | 139.79022 | 30 ft | 11 kts | 160° |
| 2026-02-19 15:07 | 35.55646 | 139.79069 | 31 ft | 11 kts | 150° |
| 2026-02-19 15:07 | 35.55577 | 139.79118 | 31 ft | 12 kts | 150° |
| 2026-02-19 15:07 | 35.55508 | 139.79153 | 31 ft | 9 kts | 185° |
| 2026-02-19 15:07 | 35.55479 | 139.79107 | 30 ft | 7 kts | 246° |
| 2026-02-19 15:08 | 35.55456 | 139.79055 | 31 ft | 7 kts | 240° |
| 2026-02-19 15:08 | 35.55410 | 139.78951 | 32 ft | 7 kts | 255° |
| 2026-02-19 15:08 | 35.55432 | 139.78901 | 31 ft | 7 kts | 325° |
| 2026-02-19 15:09 | 35.55462 | 139.78878 | 32 ft | 0 kts | 329° |